sensor_id;sensor_type;location;lat;lon;timestamp;temperature;humidity
22418;DHT22;11376;50.932;4.442;2022-09-02T00:00:50;18.50;99.90
22418;DHT22;11376;50.932;4.442;2022-09-02T00:03:17;18.40;99.90
22418;DHT22;11376;50.932;4.442;2022-09-02T00:05:43;18.40;99.90
22418;DHT22;11376;50.932;4.442;2022-09-02T00:08:09;18.30;99.90
22418;DHT22;11376;50.932;4.442;2022-09-02T00:10:38;18.30;99.90
22418;DHT22;11376;50.932;4.442;2022-09-02T00:13:06;18.30;99.90
22418;DHT22;11376;50.932;4.442;2022-09-02T00:15:32;18.30;99.90
22418;DHT22;11376;50.932;4.442;2022-09-02T00:17:59;18.20;99.90
22418;DHT22;11376;50.932;4.442;2022-09-02T00:20:27;18.20;99.90
22418;DHT22;11376;50.932;4.442;2022-09-02T00:22:53;18.10;99.90
22418;DHT22;11376;50.932;4.442;2022-09-02T00:25:19;18.10;99.90
22418;DHT22;11376;50.932;4.442;2022-09-02T00:27:45;18.10;99.90
22418;DHT22;11376;50.932;4.442;2022-09-02T00:30:11;18.00;99.90
22418;DHT22;11376;50.932;4.442;2022-09-02T00:32:37;18.00;99.90
22418;DHT22;11376;50.932;4.442;2022-09-02T00:35:03;18.00;99.90
22418;DHT22;11376;50.932;4.442;2022-09-02T00:37:28;18.00;99.90
22418;DHT22;11376;50.932;4.442;2022-09-02T00:39:54;17.90;99.90
22418;DHT22;11376;50.932;4.442;2022-09-02T00:42:20;17.90;99.90
22418;DHT22;11376;50.932;4.442;2022-09-02T00:44:47;17.90;99.90
22418;DHT22;11376;50.932;4.442;2022-09-02T00:47:12;17.90;99.90
22418;DHT22;11376;50.932;4.442;2022-09-02T00:49:41;17.80;99.90
22418;DHT22;11376;50.932;4.442;2022-09-02T00:52:24;17.80;99.90
22418;DHT22;11376;50.932;4.442;2022-09-02T00:55:10;17.80;99.90
22418;DHT22;11376;50.932;4.442;2022-09-02T00:57:40;17.70;99.90
22418;DHT22;11376;50.932;4.442;2022-09-02T01:00:33;17.70;99.90
22418;DHT22;11376;50.932;4.442;2022-09-02T01:03:00;17.70;99.90
22418;DHT22;11376;50.932;4.442;2022-09-02T01:05:29;17.60;99.90
22418;DHT22;11376;50.932;4.442;2022-09-02T01:07:57;17.60;99.90
22418;DHT22;11376;50.932;4.442;2022-09-02T01:10:30;17.70;99.90
22418;DHT22;11376;50.932;4.442;2022-09-02T01:13:05;17.60;99.90
22418;DHT22;11376;50.932;4.442;2022-09-02T01:15:35;17.60;99.90
22418;DHT22;11376;50.932;4.442;2022-09-02T01:18:04;17.60;99.90
22418;DHT22;11376;50.932;4.442;2022-09-02T01:20:31;17.60;99.90
22418;DHT22;11376;50.932;4.442;2022-09-02T01:22:56;17.60;99.90
22418;DHT22;11376;50.932;4.442;2022-09-02T01:25:29;17.50;99.90
22418;DHT22;11376;50.932;4.442;2022-09-02T01:27:59;17.60;99.90
22418;DHT22;11376;50.932;4.442;2022-09-02T01:30:25;17.50;99.90
22418;DHT22;11376;50.932;4.442;2022-09-02T01:32:51;17.60;99.90
22418;DHT22;11376;50.932;4.442;2022-09-02T01:35:17;17.50;99.90
22418;DHT22;11376;50.932;4.442;2022-09-02T01:37:44;17.50;99.90
22418;DHT22;11376;50.932;4.442;2022-09-02T01:40:13;17.50;99.90
22418;DHT22;11376;50.932;4.442;2022-09-02T01:42:40;17.50;99.90
22418;DHT22;11376;50.932;4.442;2022-09-02T01:45:07;17.40;99.90
22418;DHT22;11376;50.932;4.442;2022-09-02T01:47:33;17.40;99.90
22418;DHT22;11376;50.932;4.442;2022-09-02T01:49:59;17.40;99.90
22418;DHT22;11376;50.932;4.442;2022-09-02T01:52:27;17.40;99.90
22418;DHT22;11376;50.932;4.442;2022-09-02T01:54:53;17.30;99.90
22418;DHT22;11376;50.932;4.442;2022-09-02T01:57:19;17.30;99.90
22418;DHT22;11376;50.932;4.442;2022-09-02T01:59:45;17.30;99.90
22418;DHT22;11376;50.932;4.442;2022-09-02T02:02:12;17.30;99.90
22418;DHT22;11376;50.932;4.442;2022-09-02T02:04:38;17.30;99.90
22418;DHT22;11376;50.932;4.442;2022-09-02T02:07:04;17.20;99.90
22418;DHT22;11376;50.932;4.442;2022-09-02T02:09:29;17.20;99.90
22418;DHT22;11376;50.932;4.442;2022-09-02T02:11:55;17.20;99.90
22418;DHT22;11376;50.932;4.442;2022-09-02T02:14:21;17.10;99.90
22418;DHT22;11376;50.932;4.442;2022-09-02T02:16:47;17.10;99.90
22418;DHT22;11376;50.932;4.442;2022-09-02T02:19:13;17.10;99.90
22418;DHT22;11376;50.932;4.442;2022-09-02T02:21:39;17.00;99.90
22418;DHT22;11376;50.932;4.442;2022-09-02T02:24:05;17.00;99.90
22418;DHT22;11376;50.932;4.442;2022-09-02T02:26:32;17.00;99.90
22418;DHT22;11376;50.932;4.442;2022-09-02T02:28:58;17.00;99.90
22418;DHT22;11376;50.932;4.442;2022-09-02T02:31:24;17.00;99.90
22418;DHT22;11376;50.932;4.442;2022-09-02T02:33:50;16.90;99.90
22418;DHT22;11376;50.932;4.442;2022-09-02T02:36:16;16.90;99.90
22418;DHT22;11376;50.932;4.442;2022-09-02T02:38:42;16.90;99.90
22418;DHT22;11376;50.932;4.442;2022-09-02T02:41:11;16.90;99.90
22418;DHT22;11376;50.932;4.442;2022-09-02T02:43:37;16.90;99.90
22418;DHT22;11376;50.932;4.442;2022-09-02T02:46:04;16.90;99.90
22418;DHT22;11376;50.932;4.442;2022-09-02T02:48:30;16.80;99.90
22418;DHT22;11376;50.932;4.442;2022-09-02T02:50:56;16.80;99.90
22418;DHT22;11376;50.932;4.442;2022-09-02T02:53:21;16.80;99.90
22418;DHT22;11376;50.932;4.442;2022-09-02T02:55:47;16.70;99.90
22418;DHT22;11376;50.932;4.442;2022-09-02T02:58:13;16.70;99.90
22418;DHT22;11376;50.932;4.442;2022-09-02T03:00:38;16.70;99.90
22418;DHT22;11376;50.932;4.442;2022-09-02T03:03:09;16.70;99.90
22418;DHT22;11376;50.932;4.442;2022-09-02T03:05:36;16.70;99.90
22418;DHT22;11376;50.932;4.442;2022-09-02T03:08:04;16.60;99.90
22418;DHT22;11376;50.932;4.442;2022-09-02T03:10:31;16.60;99.90
22418;DHT22;11376;50.932;4.442;2022-09-02T03:12:58;16.50;99.90
22418;DHT22;11376;50.932;4.442;2022-09-02T03:15:24;16.50;99.90
22418;DHT22;11376;50.932;4.442;2022-09-02T03:17:51;16.50;99.90
22418;DHT22;11376;50.932;4.442;2022-09-02T03:20:17;16.50;99.90
22418;DHT22;11376;50.932;4.442;2022-09-02T03:22:44;16.40;99.90
22418;DHT22;11376;50.932;4.442;2022-09-02T03:25:12;16.40;99.90
22418;DHT22;11376;50.932;4.442;2022-09-02T03:27:39;16.40;99.90
22418;DHT22;11376;50.932;4.442;2022-09-02T03:30:07;16.40;99.90
22418;DHT22;11376;50.932;4.442;2022-09-02T03:32:33;16.30;99.90
22418;DHT22;11376;50.932;4.442;2022-09-02T03:35:00;16.30;99.90
22418;DHT22;11376;50.932;4.442;2022-09-02T03:37:26;16.30;99.90
22418;DHT22;11376;50.932;4.442;2022-09-02T03:39:52;16.30;99.90
22418;DHT22;11376;50.932;4.442;2022-09-02T03:42:18;16.30;99.90
22418;DHT22;11376;50.932;4.442;2022-09-02T03:44:43;16.30;99.90
22418;DHT22;11376;50.932;4.442;2022-09-02T03:47:09;16.20;99.90
22418;DHT22;11376;50.932;4.442;2022-09-02T03:49:35;16.20;99.90
22418;DHT22;11376;50.932;4.442;2022-09-02T03:52:00;16.20;99.90
22418;DHT22;11376;50.932;4.442;2022-09-02T03:54:26;16.20;99.90
22418;DHT22;11376;50.932;4.442;2022-09-02T03:56:52;16.20;99.90
22418;DHT22;11376;50.932;4.442;2022-09-02T03:59:18;16.20;99.90
22418;DHT22;11376;50.932;4.442;2022-09-02T04:01:44;16.20;99.90
22418;DHT22;11376;50.932;4.442;2022-09-02T04:04:10;16.20;99.90
22418;DHT22;11376;50.932;4.442;2022-09-02T04:06:36;16.20;99.90
22418;DHT22;11376;50.932;4.442;2022-09-02T04:09:03;16.10;99.90
22418;DHT22;11376;50.932;4.442;2022-09-02T04:11:29;16.10;99.90
22418;DHT22;11376;50.932;4.442;2022-09-02T04:13:55;16.10;99.90
22418;DHT22;11376;50.932;4.442;2022-09-02T04:16:23;16.10;99.90
22418;DHT22;11376;50.932;4.442;2022-09-02T04:18:54;16.10;99.90
22418;DHT22;11376;50.932;4.442;2022-09-02T04:21:20;16.10;99.90
22418;DHT22;11376;50.932;4.442;2022-09-02T04:23:46;16.10;99.90
22418;DHT22;11376;50.932;4.442;2022-09-02T04:26:15;16.10;99.90
22418;DHT22;11376;50.932;4.442;2022-09-02T04:28:41;16.10;99.90
22418;DHT22;11376;50.932;4.442;2022-09-02T04:31:11;16.10;99.90
22418;DHT22;11376;50.932;4.442;2022-09-02T04:33:38;16.00;99.90
22418;DHT22;11376;50.932;4.442;2022-09-02T04:36:05;16.00;99.90
22418;DHT22;11376;50.932;4.442;2022-09-02T04:38:32;16.00;99.90
22418;DHT22;11376;50.932;4.442;2022-09-02T04:40:57;16.00;99.90
22418;DHT22;11376;50.932;4.442;2022-09-02T04:43:23;16.00;99.90
22418;DHT22;11376;50.932;4.442;2022-09-02T04:45:49;16.00;99.90
22418;DHT22;11376;50.932;4.442;2022-09-02T04:48:16;16.00;99.90
22418;DHT22;11376;50.932;4.442;2022-09-02T04:50:42;16.00;99.90
22418;DHT22;11376;50.932;4.442;2022-09-02T04:53:08;16.00;99.90
22418;DHT22;11376;50.932;4.442;2022-09-02T04:55:34;15.90;99.90
22418;DHT22;11376;50.932;4.442;2022-09-02T04:58:02;15.90;99.90
22418;DHT22;11376;50.932;4.442;2022-09-02T05:00:28;15.90;99.90
22418;DHT22;11376;50.932;4.442;2022-09-02T05:02:54;15.90;99.90
22418;DHT22;11376;50.932;4.442;2022-09-02T05:05:20;15.90;99.90
22418;DHT22;11376;50.932;4.442;2022-09-02T05:07:45;15.80;99.90
22418;DHT22;11376;50.932;4.442;2022-09-02T05:10:11;15.80;99.90
22418;DHT22;11376;50.932;4.442;2022-09-02T05:12:40;15.80;99.90
22418;DHT22;11376;50.932;4.442;2022-09-02T05:15:07;15.90;99.90
22418;DHT22;11376;50.932;4.442;2022-09-02T05:17:34;15.80;99.90
22418;DHT22;11376;50.932;4.442;2022-09-02T05:20:06;15.90;99.90
22418;DHT22;11376;50.932;4.442;2022-09-02T05:22:33;15.90;99.90
22418;DHT22;11376;50.932;4.442;2022-09-02T05:24:59;16.00;99.90
22418;DHT22;11376;50.932;4.442;2022-09-02T05:27:24;16.00;99.90
22418;DHT22;11376;50.932;4.442;2022-09-02T05:29:54;16.00;99.90
22418;DHT22;11376;50.932;4.442;2022-09-02T05:32:20;16.10;99.90
22418;DHT22;11376;50.932;4.442;2022-09-02T05:34:47;16.20;99.90
22418;DHT22;11376;50.932;4.442;2022-09-02T05:37:13;16.20;99.90
22418;DHT22;11376;50.932;4.442;2022-09-02T05:39:38;16.30;99.90
22418;DHT22;11376;50.932;4.442;2022-09-02T05:42:04;16.30;99.90
22418;DHT22;11376;50.932;4.442;2022-09-02T05:44:30;16.30;99.90
22418;DHT22;11376;50.932;4.442;2022-09-02T05:46:56;16.30;99.90
22418;DHT22;11376;50.932;4.442;2022-09-02T05:49:21;16.40;99.90
22418;DHT22;11376;50.932;4.442;2022-09-02T05:51:50;16.40;99.90
22418;DHT22;11376;50.932;4.442;2022-09-02T05:54:37;16.40;99.90
22418;DHT22;11376;50.932;4.442;2022-09-02T05:57:09;16.40;99.90
22418;DHT22;11376;50.932;4.442;2022-09-02T05:59:37;16.50;99.90
22418;DHT22;11376;50.932;4.442;2022-09-02T06:02:08;16.50;99.90
22418;DHT22;11376;50.932;4.442;2022-09-02T06:04:39;16.50;99.90
22418;DHT22;11376;50.932;4.442;2022-09-02T06:07:05;16.60;99.90
22418;DHT22;11376;50.932;4.442;2022-09-02T06:09:31;16.70;99.90
22418;DHT22;11376;50.932;4.442;2022-09-02T06:11:57;16.70;99.90
22418;DHT22;11376;50.932;4.442;2022-09-02T06:14:24;16.80;99.90
22418;DHT22;11376;50.932;4.442;2022-09-02T06:16:50;16.90;99.90
22418;DHT22;11376;50.932;4.442;2022-09-02T06:19:17;17.00;99.90
22418;DHT22;11376;50.932;4.442;2022-09-02T06:21:42;17.10;99.90
22418;DHT22;11376;50.932;4.442;2022-09-02T06:24:09;17.10;99.90
22418;DHT22;11376;50.932;4.442;2022-09-02T06:26:36;17.20;99.90
22418;DHT22;11376;50.932;4.442;2022-09-02T06:29:03;17.30;99.90
22418;DHT22;11376;50.932;4.442;2022-09-02T06:31:29;17.30;99.90
22418;DHT22;11376;50.932;4.442;2022-09-02T06:33:56;17.40;99.90
22418;DHT22;11376;50.932;4.442;2022-09-02T06:36:24;17.50;99.90
22418;DHT22;11376;50.932;4.442;2022-09-02T06:38:51;17.60;99.90
22418;DHT22;11376;50.932;4.442;2022-09-02T06:41:23;17.70;99.90
22418;DHT22;11376;50.932;4.442;2022-09-02T06:43:51;17.80;99.90
22418;DHT22;11376;50.932;4.442;2022-09-02T06:46:22;17.90;99.90
22418;DHT22;11376;50.932;4.442;2022-09-02T06:48:48;18.10;99.90
22418;DHT22;11376;50.932;4.442;2022-09-02T06:51:26;18.20;99.90
22418;DHT22;11376;50.932;4.442;2022-09-02T06:53:51;18.40;99.90
22418;DHT22;11376;50.932;4.442;2022-09-02T06:56:18;18.50;99.90
22418;DHT22;11376;50.932;4.442;2022-09-02T06:58:44;18.60;99.90
22418;DHT22;11376;50.932;4.442;2022-09-02T07:01:15;18.80;99.90
22418;DHT22;11376;50.932;4.442;2022-09-02T07:03:41;18.90;99.90
22418;DHT22;11376;50.932;4.442;2022-09-02T07:06:25;19.10;99.90
22418;DHT22;11376;50.932;4.442;2022-09-02T07:08:51;19.30;99.90
22418;DHT22;11376;50.932;4.442;2022-09-02T07:11:22;19.40;99.90
22418;DHT22;11376;50.932;4.442;2022-09-02T07:13:49;19.60;99.90
22418;DHT22;11376;50.932;4.442;2022-09-02T07:16:16;19.70;99.90
22418;DHT22;11376;50.932;4.442;2022-09-02T07:18:41;19.90;99.90
22418;DHT22;11376;50.932;4.442;2022-09-02T07:21:09;20.10;99.90
22418;DHT22;11376;50.932;4.442;2022-09-02T07:23:35;20.30;99.90
22418;DHT22;11376;50.932;4.442;2022-09-02T07:26:01;20.40;99.90
22418;DHT22;11376;50.932;4.442;2022-09-02T07:28:27;20.60;99.90
22418;DHT22;11376;50.932;4.442;2022-09-02T07:30:53;20.70;99.90
22418;DHT22;11376;50.932;4.442;2022-09-02T07:33:20;20.90;99.90
22418;DHT22;11376;50.932;4.442;2022-09-02T07:35:46;21.10;99.90
22418;DHT22;11376;50.932;4.442;2022-09-02T07:38:12;21.20;99.90
22418;DHT22;11376;50.932;4.442;2022-09-02T07:40:40;21.40;99.90
22418;DHT22;11376;50.932;4.442;2022-09-02T07:43:09;21.60;99.90
22418;DHT22;11376;50.932;4.442;2022-09-02T07:45:36;21.70;99.90
22418;DHT22;11376;50.932;4.442;2022-09-02T07:48:03;21.90;99.90
22418;DHT22;11376;50.932;4.442;2022-09-02T07:50:32;22.10;99.90
22418;DHT22;11376;50.932;4.442;2022-09-02T07:52:59;22.20;99.90
22418;DHT22;11376;50.932;4.442;2022-09-02T07:55:26;22.40;99.90
22418;DHT22;11376;50.932;4.442;2022-09-02T07:57:55;22.60;99.90
22418;DHT22;11376;50.932;4.442;2022-09-02T08:00:20;22.70;99.90
22418;DHT22;11376;50.932;4.442;2022-09-02T08:02:47;22.80;99.90
22418;DHT22;11376;50.932;4.442;2022-09-02T08:05:13;22.80;99.90
22418;DHT22;11376;50.932;4.442;2022-09-02T08:07:39;23.00;99.90
22418;DHT22;11376;50.932;4.442;2022-09-02T08:10:07;23.10;99.90
22418;DHT22;11376;50.932;4.442;2022-09-02T08:12:35;23.20;99.90
22418;DHT22;11376;50.932;4.442;2022-09-02T08:15:02;23.30;99.90
22418;DHT22;11376;50.932;4.442;2022-09-02T08:17:28;23.40;99.90
22418;DHT22;11376;50.932;4.442;2022-09-02T08:19:58;23.50;99.90
22418;DHT22;11376;50.932;4.442;2022-09-02T08:22:25;23.60;99.90
22418;DHT22;11376;50.932;4.442;2022-09-02T08:24:51;23.60;99.90
22418;DHT22;11376;50.932;4.442;2022-09-02T08:27:17;23.80;99.90
22418;DHT22;11376;50.932;4.442;2022-09-02T08:29:42;23.80;99.90
22418;DHT22;11376;50.932;4.442;2022-09-02T08:32:08;24.00;99.90
22418;DHT22;11376;50.932;4.442;2022-09-02T08:34:34;24.10;99.90
22418;DHT22;11376;50.932;4.442;2022-09-02T08:36:59;24.20;99.90
22418;DHT22;11376;50.932;4.442;2022-09-02T08:39:25;24.30;99.90
22418;DHT22;11376;50.932;4.442;2022-09-02T08:44:59;24.50;99.90
22418;DHT22;11376;50.932;4.442;2022-09-02T08:47:30;24.70;99.90
22418;DHT22;11376;50.932;4.442;2022-09-02T08:50:05;24.80;99.90
22418;DHT22;11376;50.932;4.442;2022-09-02T08:52:40;24.80;99.90
22418;DHT22;11376;50.932;4.442;2022-09-02T08:55:17;24.90;99.90
22418;DHT22;11376;50.932;4.442;2022-09-02T08:57:44;25.00;99.90
22418;DHT22;11376;50.932;4.442;2022-09-02T09:00:11;25.10;99.90
22418;DHT22;11376;50.932;4.442;2022-09-02T09:05:32;25.40;99.90
22418;DHT22;11376;50.932;4.442;2022-09-02T09:11:04;25.50;99.90
22418;DHT22;11376;50.932;4.442;2022-09-02T09:14:02;25.60;99.90
22418;DHT22;11376;50.932;4.442;2022-09-02T09:17:07;25.70;99.90
22418;DHT22;11376;50.932;4.442;2022-09-02T09:22:03;26.00;99.90
22418;DHT22;11376;50.932;4.442;2022-09-02T09:24:35;26.10;99.90
22418;DHT22;11376;50.932;4.442;2022-09-02T09:27:13;26.30;99.90
22418;DHT22;11376;50.932;4.442;2022-09-02T09:29:39;26.30;99.10
22418;DHT22;11376;50.932;4.442;2022-09-02T09:32:16;26.40;98.90
22418;DHT22;11376;50.932;4.442;2022-09-02T09:39:52;26.80;97.80
22418;DHT22;11376;50.932;4.442;2022-09-02T09:42:35;26.80;97.50
22418;DHT22;11376;50.932;4.442;2022-09-02T09:45:17;26.90;96.90
22418;DHT22;11376;50.932;4.442;2022-09-02T09:47:45;27.00;96.60
22418;DHT22;11376;50.932;4.442;2022-09-02T09:50:30;27.10;96.20
22418;DHT22;11376;50.932;4.442;2022-09-02T09:55:53;27.30;96.00
22418;DHT22;11376;50.932;4.442;2022-09-02T09:58:20;27.50;95.60
22418;DHT22;11376;50.932;4.442;2022-09-02T10:00:46;27.60;95.40
22418;DHT22;11376;50.932;4.442;2022-09-02T10:03:22;27.70;95.10
22418;DHT22;11376;50.932;4.442;2022-09-02T10:05:54;27.60;94.40
22418;DHT22;11376;50.932;4.442;2022-09-02T10:08:22;27.70;94.00
22418;DHT22;11376;50.932;4.442;2022-09-02T10:11:03;27.70;93.90
22418;DHT22;11376;50.932;4.442;2022-09-02T10:13:32;27.70;93.80
22418;DHT22;11376;50.932;4.442;2022-09-02T10:18:49;28.30;92.80
22418;DHT22;11376;50.932;4.442;2022-09-02T10:27:10;29.00;91.30
22418;DHT22;11376;50.932;4.442;2022-09-02T10:43:17;33.10;77.70
22418;DHT22;11376;50.932;4.442;2022-09-02T10:45:49;35.40;69.80
22418;DHT22;11376;50.932;4.442;2022-09-02T10:48:47;37.90;59.40
22418;DHT22;11376;50.932;4.442;2022-09-02T10:51:36;40.50;51.90
22418;DHT22;11376;50.932;4.442;2022-09-02T10:54:33;43.10;44.20
22418;DHT22;11376;50.932;4.442;2022-09-02T10:57:13;45.00;38.30
22418;DHT22;11376;50.932;4.442;2022-09-02T10:59:48;46.50;35.10
22418;DHT22;11376;50.932;4.442;2022-09-02T11:02:28;47.30;32.80
22418;DHT22;11376;50.932;4.442;2022-09-02T11:05:10;48.40;30.90
22418;DHT22;11376;50.932;4.442;2022-09-02T11:07:45;49.50;29.20
22418;DHT22;11376;50.932;4.442;2022-09-02T11:10:21;50.10;27.50
22418;DHT22;11376;50.932;4.442;2022-09-02T11:13:23;50.90;26.90
22418;DHT22;11376;50.932;4.442;2022-09-02T11:16:09;52.00;25.80
22418;DHT22;11376;50.932;4.442;2022-09-02T11:19:04;52.80;25.00
22418;DHT22;11376;50.932;4.442;2022-09-02T11:21:55;51.60;24.60
22418;DHT22;11376;50.932;4.442;2022-09-02T11:24:38;48.10;25.50
22418;DHT22;11376;50.932;4.442;2022-09-02T11:27:33;48.40;25.80
22418;DHT22;11376;50.932;4.442;2022-09-02T11:30:01;49.60;25.00
22418;DHT22;11376;50.932;4.442;2022-09-02T11:35:24;50.90;24.00
22418;DHT22;11376;50.932;4.442;2022-09-02T11:38:03;51.80;23.70
22418;DHT22;11376;50.932;4.442;2022-09-02T11:40:57;52.80;22.50
22418;DHT22;11376;50.932;4.442;2022-09-02T11:43:47;52.20;22.50
22418;DHT22;11376;50.932;4.442;2022-09-02T11:52:04;53.60;21.70
22418;DHT22;11376;50.932;4.442;2022-09-02T11:54:38;54.70;21.10
22418;DHT22;11376;50.932;4.442;2022-09-02T11:57:05;55.40;20.90
22418;DHT22;11376;50.932;4.442;2022-09-02T12:07:59;54.90;19.40
22418;DHT22;11376;50.932;4.442;2022-09-02T12:13:06;52.50;20.30
22418;DHT22;11376;50.932;4.442;2022-09-02T12:15:32;51.10;20.60
22418;DHT22;11376;50.932;4.442;2022-09-02T12:18:25;49.30;21.40
22418;DHT22;11376;50.932;4.442;2022-09-02T12:29:29;47.70;21.70
22418;DHT22;11376;50.932;4.442;2022-09-02T12:31:55;45.80;23.00
22418;DHT22;11376;50.932;4.442;2022-09-02T12:37:08;42.90;24.60
22418;DHT22;11376;50.932;4.442;2022-09-02T12:55:20;49.40;21.40
22418;DHT22;11376;50.932;4.442;2022-09-02T12:57:49;50.40;20.90
22418;DHT22;11376;50.932;4.442;2022-09-02T13:00:29;52.20;20.30
22418;DHT22;11376;50.932;4.442;2022-09-02T13:08:59;54.90;18.80
22418;DHT22;11376;50.932;4.442;2022-09-02T13:14:51;55.90;18.10
22418;DHT22;11376;50.932;4.442;2022-09-02T13:17:44;55.90;17.70
22418;DHT22;11376;50.932;4.442;2022-09-02T13:29:00;56.60;17.20
22418;DHT22;11376;50.932;4.442;2022-09-02T13:31:30;56.90;16.60
22418;DHT22;11376;50.932;4.442;2022-09-02T13:34:00;57.00;16.60
22418;DHT22;11376;50.932;4.442;2022-09-02T13:36:31;55.00;16.70
22418;DHT22;11376;50.932;4.442;2022-09-02T13:39:28;53.40;17.50
22418;DHT22;11376;50.932;4.442;2022-09-02T13:41:54;53.00;17.70
22418;DHT22;11376;50.932;4.442;2022-09-02T13:44:22;53.20;17.50
22418;DHT22;11376;50.932;4.442;2022-09-02T13:46:52;53.10;17.70
22418;DHT22;11376;50.932;4.442;2022-09-02T13:49:20;52.70;17.80
22418;DHT22;11376;50.932;4.442;2022-09-02T13:51:48;52.00;17.90
22418;DHT22;11376;50.932;4.442;2022-09-02T13:54:24;51.70;17.80
22418;DHT22;11376;50.932;4.442;2022-09-02T13:56:50;50.60;18.20
22418;DHT22;11376;50.932;4.442;2022-09-02T13:59:37;50.20;18.60
22418;DHT22;11376;50.932;4.442;2022-09-02T14:02:23;50.30;18.80
22418;DHT22;11376;50.932;4.442;2022-09-02T14:04:56;50.60;18.30
22418;DHT22;11376;50.932;4.442;2022-09-02T14:07:34;50.40;18.10
22418;DHT22;11376;50.932;4.442;2022-09-02T14:10:06;49.20;18.50
22418;DHT22;11376;50.932;4.442;2022-09-02T14:12:33;47.10;19.30
22418;DHT22;11376;50.932;4.442;2022-09-02T14:15:01;45.90;20.10
22418;DHT22;11376;50.932;4.442;2022-09-02T14:17:27;46.20;20.20
22418;DHT22;11376;50.932;4.442;2022-09-02T14:20:19;45.20;20.40
22418;DHT22;11376;50.932;4.442;2022-09-02T14:22:56;44.40;20.80
22418;DHT22;11376;50.932;4.442;2022-09-02T14:25:23;43.60;21.00
22418;DHT22;11376;50.932;4.442;2022-09-02T14:27:57;42.80;21.30
22418;DHT22;11376;50.932;4.442;2022-09-02T14:30:38;41.90;21.90
22418;DHT22;11376;50.932;4.442;2022-09-02T14:33:43;41.20;22.50
22418;DHT22;11376;50.932;4.442;2022-09-02T14:43:46;39.00;24.40
22418;DHT22;11376;50.932;4.442;2022-09-02T14:51:35;37.90;25.80
22418;DHT22;11376;50.932;4.442;2022-09-02T14:54:02;37.60;25.80
22418;DHT22;11376;50.932;4.442;2022-09-02T14:56:50;37.30;25.70
22418;DHT22;11376;50.932;4.442;2022-09-02T14:59:18;37.00;25.80
22418;DHT22;11376;50.932;4.442;2022-09-02T15:01:46;36.70;26.00
22418;DHT22;11376;50.932;4.442;2022-09-02T15:04:14;36.30;26.30
22418;DHT22;11376;50.932;4.442;2022-09-02T15:06:43;36.00;26.50
22418;DHT22;11376;50.932;4.442;2022-09-02T15:09:09;35.70;26.70
22418;DHT22;11376;50.932;4.442;2022-09-02T15:11:37;35.50;27.40
22418;DHT22;11376;50.932;4.442;2022-09-02T15:14:03;35.30;27.00
22418;DHT22;11376;50.932;4.442;2022-09-02T15:16:29;35.10;27.30
22418;DHT22;11376;50.932;4.442;2022-09-02T15:18:55;34.90;27.40
22418;DHT22;11376;50.932;4.442;2022-09-02T15:21:20;34.60;27.70
22418;DHT22;11376;50.932;4.442;2022-09-02T15:23:46;34.30;27.90
22418;DHT22;11376;50.932;4.442;2022-09-02T15:26:12;34.30;28.60
22418;DHT22;11376;50.932;4.442;2022-09-02T15:28:37;34.20;28.20
22418;DHT22;11376;50.932;4.442;2022-09-02T15:31:03;34.10;28.20
22418;DHT22;11376;50.932;4.442;2022-09-02T15:33:29;34.20;28.20
22418;DHT22;11376;50.932;4.442;2022-09-02T15:36:04;34.20;28.70
22418;DHT22;11376;50.932;4.442;2022-09-02T15:38:30;34.20;28.20
22418;DHT22;11376;50.932;4.442;2022-09-02T15:40:56;34.20;28.20
22418;DHT22;11376;50.932;4.442;2022-09-02T15:43:21;34.20;28.20
22418;DHT22;11376;50.932;4.442;2022-09-02T15:45:47;34.20;27.90
22418;DHT22;11376;50.932;4.442;2022-09-02T15:48:14;34.40;27.90
22418;DHT22;11376;50.932;4.442;2022-09-02T15:50:39;34.40;27.90
22418;DHT22;11376;50.932;4.442;2022-09-02T15:53:05;34.40;28.00
22418;DHT22;11376;50.932;4.442;2022-09-02T15:55:32;34.50;28.10
22418;DHT22;11376;50.932;4.442;2022-09-02T15:57:58;34.50;27.90
22418;DHT22;11376;50.932;4.442;2022-09-02T16:00:24;34.50;28.20
22418;DHT22;11376;50.932;4.442;2022-09-02T16:02:51;34.40;28.20
22418;DHT22;11376;50.932;4.442;2022-09-02T16:05:16;34.20;28.20
22418;DHT22;11376;50.932;4.442;2022-09-02T16:07:42;34.20;28.40
22418;DHT22;11376;50.932;4.442;2022-09-02T16:10:08;34.10;28.60
22418;DHT22;11376;50.932;4.442;2022-09-02T16:12:34;34.00;28.70
22418;DHT22;11376;50.932;4.442;2022-09-02T16:15:00;33.80;28.90
22418;DHT22;11376;50.932;4.442;2022-09-02T16:17:26;33.60;29.00
22418;DHT22;11376;50.932;4.442;2022-09-02T16:19:52;33.40;29.20
22418;DHT22;11376;50.932;4.442;2022-09-02T16:22:18;33.20;29.50
22418;DHT22;11376;50.932;4.442;2022-09-02T16:24:43;32.90;29.70
22418;DHT22;11376;50.932;4.442;2022-09-02T16:27:09;32.60;29.90
22418;DHT22;11376;50.932;4.442;2022-09-02T16:29:35;32.40;30.10
22418;DHT22;11376;50.932;4.442;2022-09-02T16:32:02;32.20;30.20
22418;DHT22;11376;50.932;4.442;2022-09-02T16:34:28;32.00;30.50
22418;DHT22;11376;50.932;4.442;2022-09-02T16:36:53;31.80;30.80
22418;DHT22;11376;50.932;4.442;2022-09-02T16:39:19;31.70;31.00
22418;DHT22;11376;50.932;4.442;2022-09-02T16:41:50;31.70;31.20
22418;DHT22;11376;50.932;4.442;2022-09-02T16:44:21;31.60;31.30
22418;DHT22;11376;50.932;4.442;2022-09-02T16:46:48;31.60;31.60
22418;DHT22;11376;50.932;4.442;2022-09-02T16:49:15;31.50;31.80
22418;DHT22;11376;50.932;4.442;2022-09-02T16:51:43;31.40;31.90
22418;DHT22;11376;50.932;4.442;2022-09-02T16:54:10;31.30;32.30
22418;DHT22;11376;50.932;4.442;2022-09-02T16:56:36;31.20;32.70
22418;DHT22;11376;50.932;4.442;2022-09-02T16:59:05;31.10;33.00
22418;DHT22;11376;50.932;4.442;2022-09-02T17:01:31;31.00;33.70
22418;DHT22;11376;50.932;4.442;2022-09-02T17:03:56;30.90;33.30
22418;DHT22;11376;50.932;4.442;2022-09-02T17:06:24;30.70;33.40
22418;DHT22;11376;50.932;4.442;2022-09-02T17:08:50;30.50;33.70
22418;DHT22;11376;50.932;4.442;2022-09-02T17:11:29;30.40;34.10
22418;DHT22;11376;50.932;4.442;2022-09-02T17:13:58;30.30;34.50
22418;DHT22;11376;50.932;4.442;2022-09-02T17:16:27;30.10;34.90
22418;DHT22;11376;50.932;4.442;2022-09-02T17:18:53;29.90;35.40
22418;DHT22;11376;50.932;4.442;2022-09-02T17:21:40;29.80;35.90
22418;DHT22;11376;50.932;4.442;2022-09-02T17:24:07;29.60;36.40
22418;DHT22;11376;50.932;4.442;2022-09-02T17:26:36;29.50;36.90
22418;DHT22;11376;50.932;4.442;2022-09-02T17:29:16;29.40;37.50
22418;DHT22;11376;50.932;4.442;2022-09-02T17:31:43;29.20;37.90
22418;DHT22;11376;50.932;4.442;2022-09-02T17:34:09;29.00;38.30
22418;DHT22;11376;50.932;4.442;2022-09-02T17:36:37;28.90;38.80
22418;DHT22;11376;50.932;4.442;2022-09-02T17:41:30;28.70;39.30
22418;DHT22;11376;50.932;4.442;2022-09-02T17:44:14;28.60;39.50
22418;DHT22;11376;50.932;4.442;2022-09-02T17:46:42;28.40;39.70